KSBY Airport (Salisbury-Ocean City Wicomico Rgnl) Information

FAA: SBY - ICAO: KSBY

KSBY Airport Location

State Maryland
County Wicomico
City Salisbury
KSBY Airport is 4 miles southeast of Salisbury, MD.
Latitude 38-20-24.6820N
Longitude 075-30-34.1210W
Elevation 52ft

KSBY Airport METARs

METAR KSBY 080554Z AUTO 00000KT 10SM CLR M02/M05 A3014 RMK AO2 SLP208 T10171050 10000 21022 58019
Altimeter 30.14"
Temperature -1.7°C (28.9°F)
Wind 0° at 0KT
Clouds Skies are clear.
Visibility 10.0mi
Time observed: 2021-12-08T05:54:00Z

KSBY Airport Details

Status Operational
Activation February 1944
Ownership Public
Usage Public
Chart WASHINGTON
ATC on-site Yes
Beacon schedule sunset-sunrise
Beacon color clear green

KSBY Airport Contacts

Owner WICOMICO COUNTY
Owner address PO BOX 870, SALISBURY, MD 21803
Owner phone 410-548-4801
Manager GARY L. KING
Manager address P.O. BOX 553, PRINCESS ANNE, MD 21853-5718
Manager phone 410-726-6770

KSBY Airport (Salisbury-Ocean City Wicomico Rgnl) Radio Frequencies

KSBY (Airport) Radio Frequencies

UNICOM 122.95
Common traffic advisory frequency (CTAF) 119.425